createdAt,value
2023-02-19T00:00:34.072Z,4.80
2023-02-19T00:03:03.902Z,4.78
2023-02-19T00:08:13.036Z,4.78
2023-02-19T00:10:43.410Z,4.73
2023-02-19T00:13:13.287Z,4.70
2023-02-19T00:15:43.437Z,4.68
2023-02-19T00:18:12.344Z,4.67
2023-02-19T00:20:40.593Z,4.66
2023-02-19T00:23:09.915Z,4.65
2023-02-19T00:25:38.255Z,4.63
2023-02-19T00:28:06.326Z,4.63
2023-02-19T00:30:34.542Z,4.62
2023-02-19T00:33:03.815Z,4.60
2023-02-19T00:35:36.787Z,4.58
2023-02-19T00:38:05.074Z,4.57
2023-02-19T00:40:33.148Z,4.55
2023-02-19T00:43:02.382Z,4.52
2023-02-19T00:45:31.475Z,4.49
2023-02-19T00:48:00.306Z,4.47
2023-02-19T00:50:28.502Z,4.46
2023-02-19T00:52:56.802Z,4.45
2023-02-19T00:55:25.240Z,4.43
2023-02-19T00:57:53.582Z,4.40
2023-02-19T01:00:22.101Z,4.38
2023-02-19T01:02:51.015Z,4.36
2023-02-19T01:05:20.486Z,4.34
2023-02-19T01:07:50.087Z,4.33
2023-02-19T01:10:18.379Z,4.32
2023-02-19T01:12:47.854Z,4.32
2023-02-19T01:15:16.211Z,4.32
2023-02-19T01:17:44.619Z,4.31
2023-02-19T01:20:12.792Z,4.32
2023-02-19T01:22:40.931Z,4.31
2023-02-19T01:25:09.078Z,4.31
2023-02-19T01:27:37.780Z,4.32
2023-02-19T01:30:06.506Z,4.32
2023-02-19T01:32:35.433Z,4.33
2023-02-19T01:35:05.782Z,4.33
2023-02-19T01:37:33.956Z,4.32
2023-02-19T01:40:05.331Z,4.32
2023-02-19T01:42:33.617Z,4.32
2023-02-19T01:45:19.394Z,4.32
2023-02-19T01:47:48.305Z,4.31
2023-02-19T01:50:16.500Z,4.30
2023-02-19T01:52:45.174Z,4.29
2023-02-19T01:55:13.351Z,4.29
2023-02-19T01:57:43.886Z,4.30
2023-02-19T02:00:13.273Z,4.30
2023-02-19T02:02:43.082Z,4.28
2023-02-19T02:05:19.716Z,4.28
2023-02-19T02:08:06.936Z,4.28
2023-02-19T02:10:35.165Z,4.28
2023-02-19T02:13:03.558Z,4.28
2023-02-19T02:15:55.375Z,4.26
2023-02-19T02:18:37.996Z,4.26
2023-02-19T02:21:51.074Z,4.25
2023-02-19T02:24:45.610Z,4.25
2023-02-19T02:27:20.551Z,4.25
2023-02-19T02:29:51.835Z,4.26
2023-02-19T02:32:21.875Z,4.27
2023-02-19T02:34:56.504Z,4.27
2023-02-19T02:37:25.864Z,4.27
2023-02-19T02:39:54.474Z,4.26
2023-02-19T02:42:29.961Z,4.25
2023-02-19T02:45:35.793Z,4.24
2023-02-19T02:48:37.276Z,4.22
2023-02-19T02:51:12.608Z,4.20
2023-02-19T02:54:21.810Z,4.16
2023-02-19T02:56:50.424Z,4.13
2023-02-19T02:59:20.312Z,4.09
2023-02-19T03:02:10.726Z,4.04
2023-02-19T03:05:09.769Z,3.99
2023-02-19T03:07:59.912Z,3.94
2023-02-19T03:10:37.050Z,3.89
2023-02-19T03:13:24.858Z,3.85
2023-02-19T03:16:16.987Z,3.83
2023-02-19T03:19:05.441Z,3.82
2023-02-19T03:21:35.234Z,3.81
2023-02-19T03:24:21.993Z,3.78
2023-02-19T03:26:54.088Z,3.74
2023-02-19T03:29:24.051Z,3.72
2023-02-19T03:32:19.192Z,3.69
2023-02-19T03:34:51.555Z,3.66
2023-02-19T03:37:25.374Z,3.63
2023-02-19T03:39:53.973Z,3.61
2023-02-19T03:42:44.455Z,3.60
2023-02-19T03:45:22.557Z,3.58
2023-02-19T03:48:10.928Z,3.57
2023-02-19T03:50:55.825Z,3.55
2023-02-19T03:53:28.680Z,3.54
2023-02-19T03:56:08.968Z,3.53
2023-02-19T03:58:44.444Z,3.53
2023-02-19T04:01:20.211Z,3.54
2023-02-19T04:03:54.125Z,3.54
2023-02-19T04:06:32.243Z,3.54
2023-02-19T04:09:02.265Z,3.53
2023-02-19T04:11:30.875Z,3.49
2023-02-19T04:14:05.260Z,3.47
2023-02-19T04:16:33.902Z,3.44
2023-02-19T04:19:06.532Z,3.41
2023-02-19T04:21:34.647Z,3.37
2023-02-19T04:24:12.493Z,3.34
2023-02-19T04:26:40.950Z,3.31
2023-02-19T04:29:09.055Z,3.30
2023-02-19T04:31:38.464Z,3.28
2023-02-19T04:34:06.634Z,3.27
2023-02-19T04:36:35.211Z,3.27
2023-02-19T04:39:03.513Z,3.26
2023-02-19T04:41:32.849Z,3.27
2023-02-19T04:44:01.126Z,3.27
2023-02-19T04:46:31.151Z,3.27
2023-02-19T04:48:59.335Z,3.26
2023-02-19T04:51:27.512Z,3.25
2023-02-19T04:53:56.498Z,3.23
2023-02-19T04:56:24.881Z,3.21
2023-02-19T04:58:54.039Z,3.16
2023-02-19T05:01:22.424Z,3.13
2023-02-19T05:03:51.113Z,3.10
2023-02-19T05:06:19.948Z,3.05
2023-02-19T05:08:48.350Z,3.01
2023-02-19T05:11:16.734Z,2.99
2023-02-19T05:13:45.865Z,2.95
2023-02-19T05:16:16.279Z,2.93
2023-02-19T05:18:45.236Z,2.90
2023-02-19T05:21:13.734Z,2.89
2023-02-19T05:23:42.184Z,2.87
2023-02-19T05:26:13.692Z,2.83
2023-02-19T05:28:41.980Z,2.81
2023-02-19T05:31:11.660Z,2.79
2023-02-19T05:33:41.532Z,2.78
2023-02-19T05:36:13.391Z,2.77
2023-02-19T05:38:42.365Z,2.75
2023-02-19T05:41:11.718Z,2.74
2023-02-19T05:43:40.312Z,2.73
2023-02-19T05:46:09.038Z,2.71
2023-02-19T05:48:37.478Z,2.70
2023-02-19T05:51:10.211Z,2.68
2023-02-19T05:53:39.650Z,2.67
2023-02-19T05:56:26.278Z,2.67
2023-02-19T05:58:54.847Z,2.69
2023-02-19T06:01:24.624Z,2.70
2023-02-19T06:03:54.740Z,2.71
2023-02-19T06:06:25.278Z,2.73
2023-02-19T06:08:54.100Z,2.74
2023-02-19T06:11:22.267Z,2.75
2023-02-19T06:13:51.193Z,2.77
2023-02-19T06:16:22.116Z,2.79
2023-02-19T06:18:56.298Z,2.80
2023-02-19T06:21:25.441Z,2.82
2023-02-19T06:23:54.413Z,2.83
2023-02-19T06:26:24.157Z,2.85
2023-02-19T06:28:53.206Z,2.88
2023-02-19T06:31:23.446Z,2.91
2023-02-19T06:33:51.962Z,2.95
2023-02-19T06:36:21.510Z,2.99
2023-02-19T06:38:49.655Z,3.02
2023-02-19T06:41:19.445Z,3.06
2023-02-19T06:43:48.128Z,3.09
2023-02-19T06:46:16.505Z,3.13
2023-02-19T06:48:44.915Z,3.17
2023-02-19T06:51:14.090Z,3.21
2023-02-19T06:53:42.398Z,3.26
2023-02-19T06:56:24.771Z,3.30
2023-02-19T06:58:55.199Z,3.33
2023-02-19T07:01:23.768Z,3.37
2023-02-19T07:03:53.125Z,3.38
2023-02-19T07:06:22.020Z,3.39
2023-02-19T07:08:54.197Z,3.39
2023-02-19T07:11:22.987Z,3.40
2023-02-19T07:13:58.513Z,3.42
2023-02-19T07:16:27.035Z,3.44
2023-02-19T07:18:58.768Z,3.46
2023-02-19T07:21:31.447Z,3.48
2023-02-19T07:24:00.467Z,3.49
2023-02-19T07:26:34.560Z,3.50
2023-02-19T07:29:02.965Z,3.51
2023-02-19T07:31:31.134Z,3.53
2023-02-19T07:33:59.377Z,3.55
2023-02-19T07:36:27.801Z,3.58
2023-02-19T07:38:57.449Z,3.61
2023-02-19T07:41:26.933Z,3.65
2023-02-19T07:43:56.615Z,3.70
2023-02-19T07:46:25.079Z,3.73
2023-02-19T07:48:59.834Z,3.76
2023-02-19T07:51:28.252Z,3.77
2023-02-19T07:53:56.354Z,3.80
2023-02-19T07:56:24.839Z,3.87
2023-02-19T07:58:53.050Z,3.95
2023-02-19T08:01:41.693Z,4.00
2023-02-19T08:04:10.880Z,4.05
2023-02-19T08:06:39.696Z,4.03
2023-02-19T08:09:07.996Z,3.99
2023-02-19T08:12:00.583Z,3.95
2023-02-19T08:14:29.462Z,3.93
2023-02-19T08:16:57.875Z,3.92
2023-02-19T08:19:26.534Z,3.90
2023-02-19T08:21:54.779Z,3.89
2023-02-19T08:24:22.871Z,3.90
2023-02-19T08:26:51.180Z,3.87
2023-02-19T08:29:19.402Z,3.85
2023-02-19T08:31:48.581Z,3.84
2023-02-19T08:34:16.911Z,3.84
2023-02-19T08:36:45.465Z,3.84
2023-02-19T08:39:13.936Z,3.90
2023-02-19T08:41:42.447Z,3.97
2023-02-19T08:44:10.597Z,4.05
2023-02-19T08:46:41.332Z,4.07
2023-02-19T08:49:09.628Z,4.04
2023-02-19T08:51:37.812Z,4.01
2023-02-19T08:54:06.324Z,3.97
2023-02-19T08:56:34.532Z,3.99
2023-02-19T08:59:02.665Z,4.02
2023-02-19T09:01:31.222Z,4.06
2023-02-19T09:03:59.656Z,4.10
2023-02-19T09:06:28.286Z,4.14
2023-02-19T09:08:56.519Z,4.16
2023-02-19T09:11:24.801Z,4.18
2023-02-19T09:13:55.340Z,4.21
2023-02-19T09:16:23.537Z,4.19
2023-02-19T09:18:51.629Z,4.17
2023-02-19T09:21:20.060Z,4.17
2023-02-19T09:23:48.697Z,4.17
2023-02-19T09:26:19.433Z,4.18
2023-02-19T09:28:48.279Z,4.19
2023-02-19T09:31:16.976Z,4.22
2023-02-19T09:33:47.060Z,4.24
2023-02-19T09:36:16.217Z,4.25
2023-02-19T09:38:44.620Z,4.25
2023-02-19T09:41:23.388Z,4.24
2023-02-19T09:43:51.673Z,4.23
2023-02-19T09:46:46.836Z,4.22
2023-02-19T09:49:17.627Z,4.20
2023-02-19T09:51:51.680Z,4.19
2023-02-19T09:54:27.975Z,4.18
2023-02-19T09:56:57.374Z,4.20
2023-02-19T09:59:49.585Z,4.23
2023-02-19T10:02:22.470Z,4.27
2023-02-19T10:04:51.752Z,4.32
2023-02-19T10:07:25.675Z,4.37
2023-02-19T10:09:57.524Z,4.40
2023-02-19T10:12:31.770Z,4.44
2023-02-19T10:15:09.557Z,4.51
2023-02-19T10:17:38.293Z,4.53
2023-02-19T10:20:06.944Z,4.54
2023-02-19T10:22:36.147Z,4.54
2023-02-19T10:25:04.779Z,4.53
2023-02-19T10:27:32.902Z,4.50
2023-02-19T10:30:01.205Z,4.47
2023-02-19T10:32:30.016Z,4.48
2023-02-19T10:35:08.598Z,4.47
2023-02-19T10:37:51.068Z,4.47
2023-02-19T10:40:23.492Z,4.46
2023-02-19T10:43:02.052Z,4.43
2023-02-19T10:45:53.128Z,4.42
2023-02-19T10:48:25.018Z,4.45
2023-02-19T10:50:58.298Z,4.45
2023-02-19T10:54:05.024Z,4.45
2023-02-19T10:56:34.114Z,4.51
2023-02-19T10:59:25.565Z,4.53
2023-02-19T11:02:04.326Z,4.52
2023-02-19T11:04:35.497Z,4.52
2023-02-19T11:07:19.832Z,4.52
2023-02-19T11:09:50.059Z,4.52
2023-02-19T11:12:28.720Z,4.51
2023-02-19T11:14:57.068Z,4.51
2023-02-19T11:17:26.796Z,4.51
2023-02-19T11:20:04.887Z,4.52
2023-02-19T11:22:42.624Z,4.54
2023-02-19T11:25:15.366Z,4.57
2023-02-19T11:28:17.958Z,4.57
2023-02-19T11:30:46.679Z,4.57
2023-02-19T11:33:17.808Z,4.55
2023-02-19T11:35:49.114Z,4.54
2023-02-19T11:38:19.064Z,4.54
2023-02-19T11:41:11.736Z,4.56
2023-02-19T11:43:57.320Z,4.58
2023-02-19T11:46:32.313Z,4.58
2023-02-19T11:49:21.773Z,4.61
2023-02-19T11:52:08.634Z,4.63
2023-02-19T11:54:58.747Z,4.64
2023-02-19T11:57:39.032Z,4.64
2023-02-19T12:00:21.937Z,4.63
2023-02-19T12:02:57.677Z,4.63
2023-02-19T12:05:44.524Z,4.62
2023-02-19T12:08:35.567Z,4.60
2023-02-19T12:11:23.471Z,4.58
2023-02-19T12:14:20.722Z,4.58
2023-02-19T12:17:21.580Z,4.60
2023-02-19T12:20:20.666Z,4.61
2023-02-19T12:23:00.273Z,4.62
2023-02-19T12:25:53.500Z,4.62
2023-02-19T12:28:30.760Z,4.62
2023-02-19T12:31:06.372Z,4.60
2023-02-19T12:33:50.256Z,4.58
2023-02-19T12:36:30.728Z,4.54
2023-02-19T12:39:14.671Z,4.53
2023-02-19T12:41:50.777Z,4.53
2023-02-19T12:44:21.976Z,4.54
2023-02-19T12:46:59.682Z,4.53
2023-02-19T12:49:31.143Z,4.52
2023-02-19T12:52:02.406Z,4.50
2023-02-19T12:54:34.900Z,4.49
2023-02-19T12:57:08.932Z,4.47
2023-02-19T12:59:42.473Z,4.47
2023-02-19T13:02:30.622Z,4.47
2023-02-19T13:05:01.248Z,4.48
2023-02-19T13:07:49.307Z,4.49
2023-02-19T13:10:29.915Z,4.52
2023-02-19T13:13:00.367Z,4.54
2023-02-19T13:15:35.541Z,4.54
2023-02-19T13:18:04.138Z,4.54
2023-02-19T13:20:39.845Z,4.53
2023-02-19T13:23:38.902Z,4.54
2023-02-19T13:26:25.413Z,4.55
2023-02-19T13:28:53.832Z,4.55
2023-02-19T13:31:59.803Z,4.55
2023-02-19T13:35:02.277Z,4.52
2023-02-19T13:37:34.631Z,4.50
2023-02-19T13:40:05.082Z,4.49
2023-02-19T13:42:36.750Z,4.51
2023-02-19T13:45:05.633Z,4.52
2023-02-19T13:47:57.125Z,4.52
2023-02-19T13:50:32.864Z,4.53
2023-02-19T13:53:02.543Z,4.53
2023-02-19T13:55:46.194Z,4.55
2023-02-19T13:58:33.177Z,4.57
2023-02-19T14:01:09.353Z,4.58
2023-02-19T14:03:38.052Z,4.58
2023-02-19T14:06:07.808Z,4.57
2023-02-19T14:08:48.484Z,4.56
2023-02-19T14:11:17.610Z,4.57
2023-02-19T14:13:53.361Z,4.57
2023-02-19T14:16:40.039Z,4.55
2023-02-19T14:19:16.566Z,4.53
2023-02-19T14:21:46.746Z,4.53
2023-02-19T14:24:15.176Z,4.53
2023-02-19T14:26:43.516Z,4.55
2023-02-19T14:29:12.183Z,4.55
2023-02-19T14:31:40.658Z,4.53
2023-02-19T14:34:22.513Z,4.51
2023-02-19T14:37:01.375Z,4.52
2023-02-19T14:39:31.637Z,4.53
2023-02-19T14:42:06.024Z,4.54
2023-02-19T14:44:47.086Z,4.54
2023-02-19T14:47:17.286Z,4.53
2023-02-19T14:49:48.171Z,4.53
2023-02-19T14:52:32.173Z,4.54
2023-02-19T14:55:01.745Z,4.52
2023-02-19T14:57:32.107Z,4.49
2023-02-19T15:00:01.881Z,4.46
2023-02-19T15:02:31.396Z,4.44
2023-02-19T15:04:59.859Z,4.43
2023-02-19T15:07:33.095Z,4.42
2023-02-19T15:10:04.907Z,4.42
2023-02-19T15:12:47.949Z,4.40
2023-02-19T15:15:22.510Z,4.39
2023-02-19T15:17:51.666Z,4.39
2023-02-19T15:20:24.365Z,4.38
2023-02-19T15:22:53.480Z,4.37
2023-02-19T15:25:23.867Z,4.36
2023-02-19T15:27:52.374Z,4.35
2023-02-19T15:30:25.985Z,4.34
2023-02-19T15:32:56.251Z,4.33
2023-02-19T15:35:25.500Z,4.32
2023-02-19T15:37:55.291Z,4.32
2023-02-19T15:40:27.194Z,4.31
2023-02-19T15:42:56.113Z,4.30
2023-02-19T15:45:27.065Z,4.29
2023-02-19T15:47:59.823Z,4.29
2023-02-19T15:50:30.995Z,4.29
2023-02-19T15:53:09.789Z,4.29
2023-02-19T15:56:07.916Z,4.29
2023-02-19T15:58:37.399Z,4.30
2023-02-19T16:01:41.558Z,4.30
2023-02-19T16:04:14.342Z,4.31
2023-02-19T16:06:57.321Z,4.31
2023-02-19T16:09:31.392Z,4.29
2023-02-19T16:12:00.314Z,4.28
2023-02-19T16:14:36.646Z,4.28
2023-02-19T16:17:16.749Z,4.27
2023-02-19T16:19:58.822Z,4.25
2023-02-19T16:22:29.242Z,4.23
2023-02-19T16:25:05.128Z,4.21
2023-02-19T16:27:39.307Z,4.20
2023-02-19T16:30:10.113Z,4.18
2023-02-19T16:32:40.633Z,4.17
2023-02-19T16:35:38.161Z,4.17
2023-02-19T16:38:19.034Z,4.14
2023-02-19T16:40:54.273Z,4.13
2023-02-19T16:43:33.440Z,4.14
2023-02-19T16:46:02.055Z,4.14
2023-02-19T16:48:30.533Z,4.14
2023-02-19T16:51:00.550Z,4.13
2023-02-19T16:53:29.549Z,4.11
2023-02-19T16:56:00.294Z,4.09
2023-02-19T16:58:29.018Z,4.08
2023-02-19T17:00:58.214Z,4.04
2023-02-19T17:03:26.855Z,4.03
2023-02-19T17:05:55.950Z,4.02
2023-02-19T17:08:41.248Z,4.01
2023-02-19T17:11:16.773Z,3.98
2023-02-19T17:13:49.178Z,3.95
2023-02-19T17:16:19.032Z,3.93
2023-02-19T17:18:50.569Z,3.90
2023-02-19T17:21:26.745Z,3.86
2023-02-19T17:23:55.926Z,3.84
2023-02-19T17:26:26.168Z,3.81
2023-02-19T17:28:59.396Z,3.79
2023-02-19T17:31:27.899Z,3.76
2023-02-19T17:33:56.258Z,3.72
2023-02-19T17:36:30.826Z,3.69
2023-02-19T17:38:59.794Z,3.66
2023-02-19T17:41:28.114Z,3.65
2023-02-19T17:43:56.445Z,3.63
2023-02-19T17:46:26.074Z,3.62
2023-02-19T17:48:54.775Z,3.62
2023-02-19T17:51:24.619Z,3.63
2023-02-19T17:53:52.831Z,3.64
2023-02-19T17:56:26.400Z,3.64
2023-02-19T17:58:55.370Z,3.66
2023-02-19T18:01:23.760Z,3.66
2023-02-19T18:03:52.288Z,3.67
2023-02-19T18:06:20.918Z,3.69
2023-02-19T18:08:50.747Z,3.68
2023-02-19T18:11:19.539Z,3.68
2023-02-19T18:13:49.389Z,3.68
2023-02-19T18:16:17.674Z,3.69
2023-02-19T18:18:45.800Z,3.69
2023-02-19T18:21:14.395Z,3.69
2023-02-19T18:23:42.723Z,3.68
2023-02-19T18:26:11.338Z,3.67
2023-02-19T18:28:39.917Z,3.66
2023-02-19T18:31:11.251Z,3.65
2023-02-19T18:33:40.446Z,3.61
2023-02-19T18:36:10.824Z,3.57
2023-02-19T18:38:39.499Z,3.53
2023-02-19T18:41:11.732Z,3.48
2023-02-19T18:43:43.383Z,3.39
2023-02-19T18:46:11.879Z,3.32
2023-02-19T18:48:40.394Z,3.27
2023-02-19T18:51:12.312Z,3.22
2023-02-19T18:53:42.600Z,3.16
2023-02-19T18:56:10.801Z,3.11
2023-02-19T18:58:41.488Z,3.07
2023-02-19T19:01:10.024Z,3.02
2023-02-19T19:03:38.402Z,2.98
2023-02-19T19:06:06.892Z,2.94
2023-02-19T19:08:35.083Z,2.90
2023-02-19T19:11:03.345Z,2.87
2023-02-19T19:13:31.831Z,2.84
2023-02-19T19:16:00.016Z,2.81
2023-02-19T19:18:28.244Z,2.79
2023-02-19T19:21:01.874Z,2.78
2023-02-19T19:23:30.090Z,2.76
2023-02-19T19:25:58.801Z,2.76
2023-02-19T19:28:27.195Z,2.76
2023-02-19T19:30:55.744Z,2.78
2023-02-19T19:33:24.402Z,2.79
2023-02-19T19:35:53.458Z,2.81
2023-02-19T19:38:24.593Z,2.83
2023-02-19T19:40:53.113Z,2.85
2023-02-19T19:43:21.300Z,2.82
2023-02-19T19:45:50.557Z,2.76
2023-02-19T19:48:18.844Z,2.72
2023-02-19T19:50:47.419Z,2.69
2023-02-19T19:53:16.139Z,2.67
2023-02-19T19:55:47.056Z,2.65
2023-02-19T19:58:16.880Z,2.62
2023-02-19T20:00:45.615Z,2.60
2023-02-19T20:03:14.286Z,2.56
2023-02-19T20:05:43.090Z,2.52
2023-02-19T20:08:11.246Z,2.49
2023-02-19T20:10:39.494Z,2.46
2023-02-19T20:13:08.263Z,2.42
2023-02-19T20:15:36.523Z,2.39
2023-02-19T20:18:04.871Z,2.37
2023-02-19T20:20:33.391Z,2.34
2023-02-19T20:23:01.693Z,2.31
2023-02-19T20:25:29.913Z,2.28
2023-02-19T20:27:58.700Z,2.24
2023-02-19T20:30:26.928Z,2.20
2023-02-19T20:32:55.183Z,2.17
2023-02-19T20:35:26.475Z,2.13
2023-02-19T20:37:55.691Z,2.09
2023-02-19T20:40:27.517Z,2.06
2023-02-19T20:42:55.989Z,2.05
2023-02-19T20:45:24.087Z,2.02
2023-02-19T20:47:52.727Z,2.00
2023-02-19T20:50:23.332Z,1.97
2023-02-19T20:52:53.672Z,1.95
2023-02-19T20:55:26.986Z,1.91
2023-02-19T20:57:55.736Z,1.88
2023-02-19T21:00:24.015Z,1.86
2023-02-19T21:02:52.295Z,1.83
2023-02-19T21:05:21.153Z,1.82
2023-02-19T21:07:49.505Z,1.81
2023-02-19T21:10:17.812Z,1.80
2023-02-19T21:12:52.464Z,1.81
2023-02-19T21:15:20.828Z,1.80
2023-02-19T21:17:48.970Z,1.79
2023-02-19T21:20:19.412Z,1.78
2023-02-19T21:22:48.402Z,1.75
2023-02-19T21:25:17.004Z,1.73
2023-02-19T21:27:45.143Z,1.71
2023-02-19T21:30:17.900Z,1.68
2023-02-19T21:32:46.626Z,1.66
2023-02-19T21:35:15.189Z,1.64
2023-02-19T21:37:43.794Z,1.63
2023-02-19T21:40:12.590Z,1.61
2023-02-19T21:42:41.276Z,1.57
2023-02-19T21:45:09.654Z,1.56
2023-02-19T21:47:37.825Z,1.54
2023-02-19T21:50:06.891Z,1.52
2023-02-19T21:52:42.589Z,1.49
2023-02-19T21:55:10.785Z,1.47
2023-02-19T21:57:39.395Z,1.46
2023-02-19T22:00:08.648Z,1.44
2023-02-19T22:02:36.827Z,1.43
2023-02-19T22:05:05.267Z,1.41
2023-02-19T22:07:33.466Z,1.38
2023-02-19T22:10:02.520Z,1.35
2023-02-19T22:12:30.907Z,1.33
2023-02-19T22:14:59.041Z,1.31
2023-02-19T22:17:27.188Z,1.28
2023-02-19T22:19:55.867Z,1.26
2023-02-19T22:22:24.038Z,1.24
2023-02-19T22:24:52.307Z,1.22
2023-02-19T22:27:20.517Z,1.21
2023-02-19T22:29:49.488Z,1.19
2023-02-19T22:32:17.884Z,1.16
2023-02-19T22:34:46.059Z,1.14
2023-02-19T22:37:16.693Z,1.13
2023-02-19T22:39:44.816Z,1.11
2023-02-19T22:42:12.928Z,1.08
2023-02-19T22:44:43.352Z,1.06
2023-02-19T22:47:11.720Z,1.03
2023-02-19T22:49:42.082Z,1.01
2023-02-19T22:52:11.860Z,1.01
2023-02-19T22:54:41.241Z,1.00
2023-02-19T22:57:09.519Z,0.98
2023-02-19T22:59:38.191Z,0.98
2023-02-19T23:02:06.238Z,0.97
2023-02-19T23:04:34.789Z,0.95
2023-02-19T23:07:02.969Z,0.94
2023-02-19T23:09:31.024Z,0.93
2023-02-19T23:12:03.577Z,0.93
2023-02-19T23:14:32.740Z,0.91
2023-02-19T23:17:01.278Z,0.88
2023-02-19T23:19:32.624Z,0.86
2023-02-19T23:22:04.562Z,0.83
2023-02-19T23:24:32.843Z,0.82
2023-02-19T23:27:01.518Z,0.81
2023-02-19T23:29:30.948Z,0.80
2023-02-19T23:32:00.412Z,0.79
2023-02-19T23:34:28.707Z,0.78
2023-02-19T23:36:59.584Z,0.77
2023-02-19T23:39:28.168Z,0.76
2023-02-19T23:42:02.148Z,0.74
2023-02-19T23:44:30.343Z,0.73
2023-02-19T23:46:58.462Z,0.71
2023-02-19T23:49:28.820Z,0.70
2023-02-19T23:51:57.007Z,0.70
2023-02-19T23:54:25.189Z,0.69
2023-02-19T23:56:53.567Z,0.67
2023-02-19T23:59:22.075Z,0.66
